createdAt,value
2023-04-19T00:00:49.610Z,46.41
2023-04-19T00:03:17.344Z,46.45
2023-04-19T00:05:44.615Z,46.13
2023-04-19T00:08:11.138Z,46.00
2023-04-19T00:10:39.845Z,46.09
2023-04-19T00:13:06.519Z,46.05
2023-04-19T00:15:35.016Z,45.93
2023-04-19T00:18:01.689Z,46.32
2023-04-19T00:20:28.219Z,46.29
2023-04-19T00:22:54.789Z,45.97
2023-04-19T00:25:21.303Z,46.27
2023-04-19T00:27:47.875Z,45.94
2023-04-19T00:30:14.557Z,45.90
2023-04-19T00:32:41.181Z,46.35
2023-04-19T00:35:08.054Z,46.59
2023-04-19T00:37:34.642Z,46.33
2023-04-19T00:40:01.172Z,45.99
2023-04-19T00:42:27.728Z,46.15
2023-04-19T00:44:54.271Z,46.27
2023-04-19T00:47:20.844Z,46.25
2023-04-19T00:49:47.426Z,46.31
2023-04-19T00:52:14.220Z,46.35
2023-04-19T00:54:43.379Z,46.28
2023-04-19T00:57:10.061Z,46.47
2023-04-19T00:59:36.859Z,46.18
2023-04-19T01:02:03.508Z,46.13
2023-04-19T01:04:30.325Z,46.08
2023-04-19T01:06:57.421Z,46.53
2023-04-19T01:09:23.952Z,46.41
2023-04-19T01:11:51.001Z,46.32
2023-04-19T01:14:17.706Z,46.34
2023-04-19T01:16:45.502Z,46.41
2023-04-19T01:19:12.441Z,46.31
2023-04-19T01:21:40.099Z,46.56
2023-04-19T01:24:07.107Z,46.58
2023-04-19T01:26:33.642Z,45.99
2023-04-19T01:29:00.218Z,46.48
2023-04-19T01:31:26.893Z,46.14
2023-04-19T01:33:53.398Z,46.29
2023-04-19T01:36:19.902Z,46.19
2023-04-19T01:38:47.768Z,46.10
2023-04-19T01:41:14.454Z,46.43
2023-04-19T01:43:40.952Z,46.11
2023-04-19T01:46:07.505Z,46.23
2023-04-19T01:48:34.035Z,46.25
2023-04-19T01:51:00.634Z,46.15
2023-04-19T01:53:27.178Z,46.43
2023-04-19T01:55:53.688Z,46.03
2023-04-19T01:58:20.509Z,45.96
2023-04-19T02:00:47.158Z,45.33
2023-04-19T02:03:13.979Z,45.53
2023-04-19T02:05:40.775Z,45.64
2023-04-19T02:08:07.298Z,45.33
2023-04-19T02:10:33.815Z,45.44
2023-04-19T02:13:00.363Z,45.28
2023-04-19T02:15:26.904Z,45.06
2023-04-19T02:17:53.514Z,45.18
2023-04-19T02:20:20.180Z,45.23
2023-04-19T02:22:47.867Z,45.07
2023-04-19T02:25:15.603Z,44.89
2023-04-19T02:27:42.126Z,44.94
2023-04-19T02:30:09.602Z,44.92
2023-04-19T02:32:36.516Z,45.12
2023-04-19T02:35:03.102Z,44.84
2023-04-19T02:37:29.601Z,45.00
2023-04-19T02:39:56.106Z,45.12
2023-04-19T02:42:22.573Z,44.93
2023-04-19T02:44:49.066Z,44.95
2023-04-19T02:47:15.750Z,44.83
2023-04-19T02:49:42.687Z,45.17
2023-04-19T02:52:09.329Z,45.27
2023-04-19T02:54:35.942Z,45.21
2023-04-19T02:57:02.669Z,45.29
2023-04-19T02:59:29.192Z,44.98
2023-04-19T03:01:55.823Z,44.55
2023-04-19T03:04:22.656Z,45.49
2023-04-19T03:06:49.208Z,45.45
2023-04-19T03:09:15.810Z,45.17
2023-04-19T03:11:42.936Z,45.50
2023-04-19T03:14:09.458Z,45.83
2023-04-19T03:16:36.643Z,46.07
2023-04-19T03:19:03.326Z,46.01
2023-04-19T03:21:29.900Z,45.97
2023-04-19T03:23:56.399Z,45.93
2023-04-19T03:26:23.007Z,46.19
2023-04-19T03:28:49.558Z,46.28
2023-04-19T03:31:16.466Z,46.05
2023-04-19T03:33:43.051Z,46.01
2023-04-19T03:36:09.628Z,46.66
2023-04-19T03:38:37.258Z,46.42
2023-04-19T03:41:03.775Z,46.24
2023-04-19T03:43:30.365Z,46.62
2023-04-19T03:45:56.924Z,46.52
2023-04-19T03:48:23.471Z,46.33
2023-04-19T03:50:49.992Z,46.47
2023-04-19T03:53:18.848Z,46.04
2023-04-19T03:55:45.894Z,46.65
2023-04-19T03:58:12.386Z,46.40
2023-04-19T04:00:38.889Z,46.06
2023-04-19T04:03:05.548Z,45.93
2023-04-19T04:05:32.299Z,46.33
2023-04-19T04:07:58.938Z,46.45
2023-04-19T04:10:25.537Z,45.91
2023-04-19T04:12:52.070Z,46.20
2023-04-19T04:15:18.627Z,46.23
2023-04-19T04:17:45.212Z,46.58
2023-04-19T04:20:13.435Z,46.47
2023-04-19T04:22:43.742Z,46.38
2023-04-19T04:25:10.275Z,46.11
2023-04-19T04:27:37.514Z,46.35
2023-04-19T04:30:04.843Z,46.08
2023-04-19T04:32:35.909Z,46.15
2023-04-19T04:35:03.790Z,46.02
2023-04-19T04:37:33.983Z,46.35
2023-04-19T04:40:01.646Z,46.01
2023-04-19T04:42:31.391Z,46.19
2023-04-19T04:44:58.026Z,46.03
2023-04-19T04:47:24.841Z,46.09
2023-04-19T04:49:52.644Z,45.55
2023-04-19T04:52:19.206Z,45.46
2023-04-19T04:54:45.715Z,45.80
2023-04-19T04:57:12.222Z,45.70
2023-04-19T04:59:38.795Z,45.18
2023-04-19T05:02:05.418Z,45.43
2023-04-19T05:04:32.097Z,45.19
2023-04-19T05:06:58.689Z,44.90
2023-04-19T05:09:25.256Z,45.06
2023-04-19T05:11:51.852Z,45.17
2023-04-19T05:14:18.400Z,44.76
2023-04-19T05:16:44.956Z,44.96
2023-04-19T05:19:11.553Z,44.77
2023-04-19T05:21:38.204Z,44.83
2023-04-19T05:24:05.246Z,44.70
2023-04-19T05:26:32.189Z,44.69
2023-04-19T05:28:58.994Z,44.40
2023-04-19T05:31:25.604Z,44.47
2023-04-19T05:33:52.177Z,44.69
2023-04-19T05:36:18.689Z,44.77
2023-04-19T05:38:45.787Z,44.87
2023-04-19T05:41:12.310Z,44.62
2023-04-19T05:43:38.862Z,44.99
2023-04-19T05:46:05.432Z,44.78
2023-04-19T05:48:31.934Z,44.41
2023-04-19T05:50:59.602Z,44.51
2023-04-19T05:53:26.143Z,44.84
2023-04-19T05:55:52.763Z,44.60
2023-04-19T05:58:19.492Z,44.44
2023-04-19T06:00:46.690Z,44.22
2023-04-19T06:03:13.521Z,43.68
2023-04-19T06:05:41.040Z,43.85
2023-04-19T06:08:09.400Z,43.86
2023-04-19T06:10:51.880Z,44.14
2023-04-19T06:13:22.837Z,44.21
2023-04-19T06:15:49.849Z,44.38
2023-04-19T06:18:19.344Z,44.39
2023-04-19T06:20:46.848Z,44.31
2023-04-19T06:23:15.482Z,44.29
2023-04-19T06:25:42.157Z,44.54
2023-04-19T06:28:08.769Z,44.68
2023-04-19T06:30:35.631Z,44.00
2023-04-19T06:33:02.266Z,44.79
2023-04-19T06:35:28.843Z,44.88
2023-04-19T06:37:55.329Z,44.58
2023-04-19T06:40:21.923Z,44.35
2023-04-19T06:42:48.548Z,44.10
2023-04-19T06:45:16.115Z,44.04
2023-04-19T06:47:42.763Z,44.32
2023-04-19T06:50:10.819Z,44.00
2023-04-19T06:52:38.855Z,44.00
2023-04-19T06:55:09.680Z,44.00
2023-04-19T06:57:36.228Z,44.22
2023-04-19T07:00:04.257Z,43.62
2023-04-19T07:02:30.871Z,43.27
2023-04-19T07:04:57.430Z,42.97
2023-04-19T07:07:23.955Z,43.14
2023-04-19T07:09:50.789Z,42.35
2023-04-19T07:12:17.278Z,42.17
2023-04-19T07:14:43.798Z,42.72
2023-04-19T07:17:10.423Z,42.33
2023-04-19T07:19:37.012Z,42.29
2023-04-19T07:22:03.670Z,41.69
2023-04-19T07:24:30.427Z,42.12
2023-04-19T07:26:57.545Z,42.23
2023-04-19T07:29:24.034Z,41.55
2023-04-19T07:31:50.626Z,41.79
2023-04-19T07:34:17.793Z,41.76
2023-04-19T07:36:44.605Z,41.92
2023-04-19T07:39:11.310Z,41.95
2023-04-19T07:41:38.002Z,41.76
2023-04-19T07:44:04.630Z,41.46
2023-04-19T07:46:31.175Z,41.79
2023-04-19T07:48:57.694Z,41.94
2023-04-19T07:51:25.127Z,41.63
2023-04-19T07:53:51.705Z,41.48
2023-04-19T07:56:19.928Z,41.43
2023-04-19T07:58:50.926Z,41.56
2023-04-19T08:01:23.543Z,41.79
2023-04-19T08:03:50.327Z,41.77
2023-04-19T08:06:17.991Z,41.31
2023-04-19T08:08:44.761Z,41.49
2023-04-19T08:11:11.386Z,41.79
2023-04-19T08:13:39.914Z,41.88
2023-04-19T08:18:36.529Z,42.04
2023-04-19T08:21:03.415Z,41.97
2023-04-19T08:23:41.212Z,41.81
2023-04-19T08:26:14.196Z,41.98
2023-04-19T08:28:40.783Z,42.11
2023-04-19T08:31:07.676Z,41.87
2023-04-19T08:33:34.299Z,42.00
2023-04-19T08:36:00.863Z,41.69
2023-04-19T08:38:27.386Z,41.88
2023-04-19T08:40:57.779Z,41.57
2023-04-19T08:43:25.836Z,41.43
2023-04-19T08:45:53.921Z,41.61
2023-04-19T08:48:21.939Z,41.39
2023-04-19T08:51:04.387Z,41.00
2023-04-19T08:53:35.543Z,40.77
2023-04-19T08:58:46.643Z,40.88
2023-04-19T09:01:33.960Z,41.14
2023-04-19T09:04:21.483Z,40.99
2023-04-19T09:06:55.153Z,41.13
2023-04-19T09:09:35.458Z,41.70
2023-04-19T09:12:03.696Z,42.06
2023-04-19T09:14:30.543Z,41.82
2023-04-19T09:17:16.622Z,41.73
2023-04-19T09:19:48.104Z,42.39
2023-04-19T09:22:14.998Z,42.58
2023-04-19T09:27:12.308Z,42.23
2023-04-19T09:29:39.091Z,41.83
2023-04-19T09:32:06.290Z,41.85
2023-04-19T09:34:32.912Z,42.30
2023-04-19T09:37:17.744Z,41.78
2023-04-19T09:39:59.316Z,41.92
2023-04-19T09:43:05.288Z,42.34
2023-04-19T09:45:44.985Z,42.38
2023-04-19T09:48:13.024Z,42.09
2023-04-19T09:51:00.175Z,41.74
2023-04-19T09:53:33.966Z,41.47
2023-04-19T09:56:03.013Z,41.46
2023-04-19T09:58:42.587Z,41.47
2023-04-19T10:01:18.947Z,41.37
2023-04-19T10:03:49.077Z,41.60
2023-04-19T10:06:33.198Z,41.71
2023-04-19T10:09:05.283Z,41.02
2023-04-19T10:11:39.094Z,41.29
2023-04-19T10:14:08.469Z,40.93
2023-04-19T10:16:37.024Z,41.52
2023-04-19T10:19:10.277Z,41.12
2023-04-19T10:21:38.165Z,40.86
2023-04-19T10:24:05.738Z,40.80
2023-04-19T10:27:14.013Z,41.43
2023-04-19T10:30:10.503Z,41.19
2023-04-19T10:32:42.673Z,41.35
2023-04-19T10:35:12.308Z,40.92
2023-04-19T10:37:41.734Z,40.93
2023-04-19T10:40:08.814Z,40.70
2023-04-19T10:43:14.720Z,40.59
2023-04-19T10:45:41.295Z,40.72
2023-04-19T10:48:33.013Z,40.73
2023-04-19T10:51:21.397Z,40.38
2023-04-19T10:53:48.205Z,40.31
2023-04-19T10:56:16.429Z,40.46
2023-04-19T10:59:01.293Z,40.52
2023-04-19T11:01:43.380Z,40.41
2023-04-19T11:04:37.533Z,40.43
2023-04-19T11:07:07.878Z,40.17
2023-04-19T11:09:39.525Z,39.99
2023-04-19T11:12:09.068Z,40.31
2023-04-19T11:14:39.601Z,40.05
2023-04-19T11:17:17.889Z,40.15
2023-04-19T11:20:09.847Z,39.56
2023-04-19T11:22:41.280Z,39.90
2023-04-19T11:25:12.317Z,39.65
2023-04-19T11:27:41.186Z,39.66
2023-04-19T11:30:10.320Z,39.71
2023-04-19T11:32:37.927Z,39.69
2023-04-19T11:35:07.874Z,39.70
2023-04-19T11:37:39.216Z,39.61
2023-04-19T11:40:06.812Z,39.40
2023-04-19T11:42:33.942Z,39.29
2023-04-19T11:45:00.553Z,39.35
2023-04-19T11:47:27.512Z,39.03
2023-04-19T11:49:56.956Z,38.82
2023-04-19T11:52:26.524Z,38.69
2023-04-19T11:54:53.971Z,38.98
2023-04-19T11:57:30.986Z,38.63
2023-04-19T12:00:12.244Z,38.89
2023-04-19T12:02:44.180Z,38.85
2023-04-19T12:05:13.598Z,38.46
2023-04-19T12:07:58.485Z,38.47
2023-04-19T12:10:25.067Z,38.77
2023-04-19T12:12:51.623Z,38.45
2023-04-19T12:15:18.225Z,38.46
2023-04-19T12:17:58.308Z,38.65
2023-04-19T12:20:35.439Z,38.63
2023-04-19T12:23:02.780Z,38.71
2023-04-19T12:25:33.762Z,38.76
2023-04-19T12:28:02.741Z,38.37
2023-04-19T12:30:29.293Z,38.50
2023-04-19T12:32:56.044Z,38.62
2023-04-19T12:35:24.352Z,38.51
2023-04-19T12:37:52.290Z,38.76
2023-04-19T12:40:18.833Z,38.43
2023-04-19T12:42:45.411Z,38.30
2023-04-19T12:45:13.279Z,38.47
2023-04-19T12:47:41.115Z,38.19
2023-04-19T12:50:08.617Z,38.36
2023-04-19T12:52:36.067Z,38.45
2023-04-19T12:55:03.277Z,38.57
2023-04-19T12:57:30.226Z,38.21
2023-04-19T12:59:56.748Z,37.97
2023-04-19T13:02:23.667Z,37.85
2023-04-19T13:04:51.095Z,37.94
2023-04-19T13:07:17.922Z,37.70
2023-04-19T13:09:44.458Z,37.82
2023-04-19T13:12:11.039Z,37.90
2023-04-19T13:14:37.583Z,37.82
2023-04-19T13:17:04.060Z,37.75
2023-04-19T13:19:31.113Z,37.77
2023-04-19T13:21:57.644Z,37.73
2023-04-19T13:24:24.176Z,37.55
2023-04-19T13:26:50.847Z,37.88
2023-04-19T13:29:17.508Z,37.43
2023-04-19T13:31:44.165Z,37.55
2023-04-19T13:34:10.732Z,37.92
2023-04-19T13:36:37.717Z,37.85
2023-04-19T13:39:05.340Z,37.77
2023-04-19T13:41:33.478Z,38.26
2023-04-19T13:44:00.010Z,38.01
2023-04-19T13:46:26.574Z,38.42
2023-04-19T13:48:53.174Z,38.53
2023-04-19T13:51:19.693Z,38.23
2023-04-19T13:53:46.251Z,38.33
2023-04-19T13:56:12.847Z,38.29
2023-04-19T13:58:39.387Z,38.24
2023-04-19T14:01:06.229Z,38.57
2023-04-19T14:03:32.978Z,38.72
2023-04-19T14:05:59.647Z,38.60
2023-04-19T14:08:26.242Z,38.60
2023-04-19T14:10:52.821Z,38.75
2023-04-19T14:13:19.402Z,38.84
2023-04-19T14:15:46.639Z,38.67
2023-04-19T14:18:13.349Z,38.73
2023-04-19T14:20:39.963Z,38.71
2023-04-19T14:23:06.510Z,38.80
2023-04-19T14:25:33.093Z,38.90
2023-04-19T14:27:59.627Z,38.66
2023-04-19T14:30:26.289Z,38.74
2023-04-19T14:32:53.059Z,38.92
2023-04-19T14:35:20.065Z,38.96
2023-04-19T14:37:46.752Z,38.83
2023-04-19T14:40:13.375Z,38.94
2023-04-19T14:42:40.070Z,38.78
2023-04-19T14:45:07.332Z,38.79
2023-04-19T14:47:34.370Z,38.95
2023-04-19T14:50:00.967Z,38.91
2023-04-19T14:52:27.551Z,39.09
2023-04-19T14:54:54.465Z,39.10
2023-04-19T14:57:21.002Z,38.97
2023-04-19T14:59:47.541Z,38.91
2023-04-19T15:02:14.193Z,39.01
2023-04-19T15:04:41.877Z,38.95
2023-04-19T15:07:08.858Z,39.14
2023-04-19T15:09:35.529Z,39.13
2023-04-19T15:12:02.221Z,39.00
2023-04-19T15:14:28.761Z,38.92
2023-04-19T15:16:55.522Z,39.10
2023-04-19T15:19:22.096Z,39.22
2023-04-19T15:21:48.713Z,39.74
2023-04-19T15:24:15.364Z,40.19
2023-04-19T15:26:44.116Z,40.02
2023-04-19T15:29:10.997Z,40.75
2023-04-19T15:31:37.598Z,40.03
2023-04-19T15:34:04.554Z,40.88
2023-04-19T15:36:31.505Z,40.60
2023-04-19T15:38:59.208Z,40.64
2023-04-19T15:41:25.857Z,41.19
2023-04-19T15:43:53.355Z,41.28
2023-04-19T15:46:19.866Z,41.11
2023-04-19T15:48:48.257Z,41.46
2023-04-19T15:51:15.370Z,41.53
2023-04-19T15:53:42.562Z,42.43
2023-04-19T15:56:10.797Z,42.22
2023-04-19T15:58:37.631Z,42.11
2023-04-19T16:01:04.308Z,42.06
2023-04-19T16:03:31.101Z,41.63
2023-04-19T16:05:57.846Z,41.59
2023-04-19T16:08:24.386Z,41.16
2023-04-19T16:10:51.111Z,41.60
2023-04-19T16:13:17.776Z,41.25
2023-04-19T16:15:44.731Z,41.55
2023-04-19T16:18:12.316Z,41.72
2023-04-19T16:20:39.874Z,41.55
2023-04-19T16:23:06.667Z,41.68
2023-04-19T16:25:34.204Z,41.67
2023-04-19T16:28:01.250Z,41.70
2023-04-19T16:30:28.433Z,41.47
2023-04-19T16:32:56.128Z,41.62
2023-04-19T16:35:23.638Z,41.45
2023-04-19T16:37:50.712Z,41.50
2023-04-19T16:40:17.342Z,41.96
2023-04-19T16:42:43.977Z,41.36
2023-04-19T16:45:11.136Z,41.65
2023-04-19T16:47:37.989Z,41.69
2023-04-19T16:50:06.120Z,41.75
2023-04-19T16:52:34.932Z,41.42
2023-04-19T16:55:04.203Z,41.30
2023-04-19T16:57:31.708Z,41.86
2023-04-19T16:59:58.406Z,41.57
2023-04-19T17:02:25.175Z,41.84
2023-04-19T17:04:52.078Z,42.09
2023-04-19T17:07:18.739Z,41.59
2023-04-19T17:09:46.196Z,41.61
2023-04-19T17:12:12.737Z,41.54
2023-04-19T17:14:39.451Z,41.88
2023-04-19T17:17:06.261Z,42.12
2023-04-19T17:19:32.813Z,41.75
2023-04-19T17:22:05.001Z,41.58
2023-04-19T17:24:32.900Z,41.52
2023-04-19T17:27:00.336Z,41.23
2023-04-19T17:29:27.407Z,41.32
2023-04-19T17:31:54.199Z,41.72
2023-04-19T17:34:20.844Z,41.15
2023-04-19T17:36:47.369Z,41.76
2023-04-19T17:39:14.201Z,41.74
2023-04-19T17:41:41.299Z,41.74
2023-04-19T17:44:07.838Z,41.41
2023-04-19T17:46:34.454Z,41.52
2023-04-19T17:49:01.325Z,41.44
2023-04-19T17:51:27.898Z,41.26
2023-04-19T17:53:54.421Z,41.11
2023-04-19T17:56:21.380Z,41.10
2023-04-19T17:58:47.936Z,41.27
2023-04-19T18:01:16.293Z,41.40
2023-04-19T18:03:43.084Z,41.36
2023-04-19T18:06:10.648Z,41.09
2023-04-19T18:08:37.338Z,41.52
2023-04-19T18:11:03.897Z,41.28
2023-04-19T18:13:30.459Z,41.57
2023-04-19T18:15:57.153Z,41.23
2023-04-19T18:18:23.755Z,41.59
2023-04-19T18:20:50.359Z,41.49
2023-04-19T18:23:16.907Z,41.38
2023-04-19T18:25:43.484Z,41.40
2023-04-19T18:28:10.641Z,41.85
2023-04-19T18:30:37.273Z,41.51
2023-04-19T18:33:04.005Z,41.66
2023-04-19T18:35:30.783Z,41.69
2023-04-19T18:37:57.776Z,41.41
2023-04-19T18:40:24.347Z,41.47
2023-04-19T18:42:50.887Z,41.93
2023-04-19T18:45:17.811Z,42.00
2023-04-19T18:47:44.436Z,41.29
2023-04-19T18:50:11.951Z,41.50
2023-04-19T18:52:38.496Z,41.82
2023-04-19T18:55:06.298Z,41.99
2023-04-19T18:57:34.944Z,41.46
2023-04-19T19:00:02.697Z,42.40
2023-04-19T19:02:29.619Z,42.23
2023-04-19T19:05:01.191Z,42.27
2023-04-19T19:10:01.593Z,42.09
2023-04-19T19:12:30.631Z,42.01
2023-04-19T19:14:57.185Z,41.92
2023-04-19T19:17:27.923Z,41.96
2023-04-19T19:19:54.937Z,41.59
2023-04-19T19:22:27.779Z,41.64
2023-04-19T19:24:54.975Z,42.57
2023-04-19T19:27:21.655Z,41.83
2023-04-19T19:29:48.249Z,41.98
2023-04-19T19:32:14.795Z,42.74
2023-04-19T19:34:53.848Z,42.01
2023-04-19T19:37:22.780Z,42.50
2023-04-19T19:39:49.705Z,42.48
2023-04-19T19:42:17.219Z,42.35
2023-04-19T19:44:44.153Z,42.40
2023-04-19T19:47:11.080Z,42.68
2023-04-19T19:52:07.909Z,42.49
2023-04-19T19:54:34.504Z,42.10
2023-04-19T19:59:34.474Z,42.24
2023-04-19T20:02:02.368Z,42.12
2023-04-19T20:04:29.381Z,42.66
2023-04-19T20:09:27.663Z,42.05
2023-04-19T20:11:54.501Z,42.02
2023-04-19T20:14:23.754Z,41.93
2023-04-19T20:16:50.793Z,42.11
2023-04-19T20:19:18.289Z,42.36
2023-04-19T20:21:46.943Z,41.96
2023-04-19T20:24:13.721Z,42.15
2023-04-19T20:26:40.291Z,41.62
2023-04-19T20:29:06.995Z,41.66
2023-04-19T20:31:33.589Z,41.83
2023-04-19T20:34:00.216Z,42.12
2023-04-19T20:36:27.879Z,42.16
2023-04-19T20:38:56.807Z,41.57
2023-04-19T20:41:23.331Z,42.42
2023-04-19T20:43:50.052Z,41.84
2023-04-19T20:46:16.818Z,42.35
2023-04-19T20:48:43.431Z,42.18
2023-04-19T20:51:10.151Z,42.34
2023-04-19T20:53:36.707Z,41.87
2023-04-19T20:56:03.246Z,42.18
2023-04-19T20:58:32.154Z,42.54
2023-04-19T21:00:59.174Z,42.49
2023-04-19T21:03:26.161Z,42.19
2023-04-19T21:05:52.911Z,42.43
2023-04-19T21:08:19.478Z,42.59
2023-04-19T21:10:46.061Z,42.32
2023-04-19T21:13:12.536Z,42.14
2023-04-19T21:15:39.113Z,42.45
2023-04-19T21:18:05.744Z,42.34
2023-04-19T21:20:32.290Z,42.67
2023-04-19T21:23:00.068Z,42.32
2023-04-19T21:25:26.747Z,42.79
2023-04-19T21:27:53.284Z,42.77
2023-04-19T21:30:21.932Z,42.12
2023-04-19T21:32:49.635Z,42.54
2023-04-19T21:35:16.279Z,42.86
2023-04-19T21:37:42.843Z,42.82
2023-04-19T21:40:09.574Z,42.50
2023-04-19T21:42:36.168Z,42.31
2023-04-19T21:45:02.827Z,42.10
2023-04-19T21:47:29.337Z,42.69
2023-04-19T21:49:55.875Z,42.97
2023-04-19T21:52:22.368Z,42.30
2023-04-19T21:54:48.915Z,42.90
2023-04-19T21:57:17.491Z,42.34
2023-04-19T21:59:44.028Z,42.60
2023-04-19T22:02:10.632Z,42.40
2023-04-19T22:04:39.552Z,42.42
2023-04-19T22:07:07.640Z,42.68
2023-04-19T22:09:34.344Z,42.57
2023-04-19T22:12:01.632Z,42.13
2023-04-19T22:14:28.363Z,42.54
2023-04-19T22:16:56.397Z,42.68
2023-04-19T22:19:25.932Z,42.36
2023-04-19T22:21:53.471Z,42.08
2023-04-19T22:24:21.808Z,42.65
2023-04-19T22:26:50.069Z,42.73
2023-04-19T22:29:17.516Z,42.73
2023-04-19T22:31:44.247Z,42.53
2023-04-19T22:34:10.890Z,42.70
2023-04-19T22:36:37.370Z,42.70
2023-04-19T22:39:04.707Z,42.24
2023-04-19T22:41:33.025Z,42.20
2023-04-19T22:44:00.123Z,42.35
2023-04-19T22:46:27.290Z,42.01
2023-04-19T22:48:53.910Z,42.68
2023-04-19T22:51:20.502Z,42.30
2023-04-19T22:53:47.109Z,42.73
2023-04-19T22:56:13.738Z,42.54
2023-04-19T22:58:40.316Z,42.40
2023-04-19T23:01:06.925Z,42.80
2023-04-19T23:03:33.582Z,42.38
2023-04-19T23:06:03.468Z,42.47
2023-04-19T23:08:30.849Z,41.74
2023-04-19T23:10:57.451Z,42.22
2023-04-19T23:13:23.984Z,41.83
2023-04-19T23:15:50.557Z,42.50
2023-04-19T23:18:17.602Z,42.06
2023-04-19T23:20:44.236Z,42.06
2023-04-19T23:23:10.990Z,42.26
2023-04-19T23:25:37.511Z,42.38
2023-04-19T23:28:04.047Z,41.95
2023-04-19T23:30:31.992Z,41.90
2023-04-19T23:32:58.644Z,42.01
2023-04-19T23:35:25.326Z,42.25
2023-04-19T23:37:51.837Z,41.78
2023-04-19T23:40:18.421Z,41.79
2023-04-19T23:42:44.981Z,42.18
2023-04-19T23:45:11.574Z,41.93
2023-04-19T23:47:38.139Z,41.73
2023-04-19T23:50:04.988Z,41.77
2023-04-19T23:52:31.556Z,42.42
2023-04-19T23:54:58.089Z,42.03
2023-04-19T23:57:24.561Z,41.99
2023-04-19T23:59:51.382Z,42.10
